Time;durP1;ratioP1;P1;durP2;ratioP2;P2;SDS_P1;SDS_P2;PMS_P1;PMS_P2;Temp;Humidity;BMP_temperature;BMP_pressure;BME280_temperature;BME280_humidity;BME280_pressure;Samples;Min_cycle;Max_cycle;Signal;HPM_P1;HPM_P2
2022/12/03 00:00:37;;;;;;;37.05;16.45;;;3.80;99.90;;;;;;5062168;28;20756;-70
2022/12/03 00:03:02;;;;;;;41.78;16.92;;;3.80;99.90;;;;;;5061518;28;20025;-70
2022/12/03 00:05:28;;;;;;;41.00;16.38;;;3.80;99.90;;;;;;5061881;28;20024;-71
2022/12/03 00:07:53;;;;;;;39.30;16.33;;;3.80;99.90;;;;;;5061730;28;20427;-70
2022/12/03 00:10:19;;;;;;;39.60;15.95;;;3.80;99.90;;;;;;5060801;28;20017;-69
2022/12/03 00:12:45;;;;;;;42.80;16.13;;;3.80;99.90;;;;;;5061409;28;20017;-70
2022/12/03 00:15:11;;;;;;;39.97;17.13;;;3.80;99.90;;;;;;5061138;28;20025;-70
2022/12/03 00:17:37;;;;;;;35.92;15.40;;;3.80;99.90;;;;;;5061242;28;20076;-71
2022/12/03 00:20:05;;;;;;;39.72;16.73;;;3.70;99.90;;;;;;5061695;28;20021;-72
2022/12/03 00:22:31;;;;;;;39.50;16.40;;;3.80;99.90;;;;;;5061342;28;20020;-70
2022/12/03 00:24:56;;;;;;;47.00;16.25;;;3.70;99.90;;;;;;5060772;28;20036;-71
2022/12/03 00:27:22;;;;;;;41.92;16.70;;;3.70;99.90;;;;;;5061478;28;20025;-70
2022/12/03 00:29:47;;;;;;;37.83;15.93;;;3.70;99.90;;;;;;5060215;28;20061;-70
2022/12/03 00:32:13;;;;;;;39.47;16.20;;;3.80;99.90;;;;;;5061130;28;20025;-71
2022/12/03 00:34:39;;;;;;;37.88;16.20;;;3.80;99.90;;;;;;5061368;28;20473;-69
2022/12/03 00:37:04;;;;;;;39.33;15.60;;;3.70;99.90;;;;;;5061561;28;20049;-71
2022/12/03 00:39:30;;;;;;;36.47;15.80;;;3.70;99.90;;;;;;5061014;28;20084;-70
2022/12/03 00:41:55;;;;;;;37.67;15.60;;;3.70;99.90;;;;;;5061274;28;20120;-70
2022/12/03 00:44:21;;;;;;;35.72;16.10;;;3.70;99.90;;;;;;5060994;28;20017;-72
2022/12/03 00:46:47;;;;;;;38.17;16.17;;;3.70;99.90;;;;;;5061138;28;20036;-70
2022/12/03 00:49:12;;;;;;;36.55;16.00;;;3.70;99.90;;;;;;5060927;28;20033;-70
2022/12/03 00:51:38;;;;;;;38.00;15.00;;;3.70;99.90;;;;;;5060837;28;20088;-69
2022/12/03 00:54:04;;;;;;;42.67;16.92;;;3.70;99.90;;;;;;5061022;28;20089;-70
2022/12/03 00:56:29;;;;;;;33.10;14.80;;;3.70;99.90;;;;;;5060090;28;20028;-70
2022/12/03 00:58:55;;;;;;;31.08;14.68;;;3.70;99.90;;;;;;5060132;28;20047;-71
2022/12/03 01:01:20;;;;;;;34.65;14.93;;;3.70;99.90;;;;;;5060697;28;20017;-70
2022/12/03 01:03:46;;;;;;;39.60;15.50;;;3.70;99.90;;;;;;5060467;28;20045;-70
2022/12/03 01:06:12;;;;;;;37.40;16.00;;;3.70;99.90;;;;;;5058842;28;20025;-71
2022/12/03 01:08:37;;;;;;;32.63;15.27;;;3.70;99.90;;;;;;5059329;28;20166;-72
2022/12/03 01:11:36;;;;;;;37.60;15.43;;;3.60;99.90;;;;;;5059216;28;20049;-70
2022/12/03 01:13:48;;;;;;;35.33;15.55;;;3.60;99.90;;;;;;5058345;28;20032;-70
2022/12/03 01:16:14;;;;;;;34.45;16.75;;;3.60;99.90;;;;;;5058598;28;20021;-70
2022/12/03 01:18:40;;;;;;;42.38;16.88;;;3.60;99.90;;;;;;5059338;28;20033;-70
2022/12/03 01:21:05;;;;;;;35.03;15.65;;;3.60;99.90;;;;;;5058988;28;20509;-71
2022/12/03 01:23:31;;;;;;;37.65;15.45;;;3.60;99.90;;;;;;5059432;28;20049;-69
2022/12/03 01:25:56;;;;;;;36.42;15.43;;;3.60;99.90;;;;;;5058269;28;20101;-69
2022/12/03 01:28:22;;;;;;;32.67;15.00;;;3.60;99.90;;;;;;5058897;28;20040;-70
2022/12/03 01:33:32;;;;;;;46.08;16.83;;;3.60;99.90;;;;;;5058800;28;20084;-69
2022/12/03 01:35:57;;;;;;;38.63;15.75;;;3.60;99.90;;;;;;5058619;28;20032;-69
2022/12/03 01:38:23;;;;;;;38.08;15.57;;;3.50;99.90;;;;;;5058997;28;20446;-70
2022/12/03 01:40:49;;;;;;;43.38;16.38;;;3.60;99.90;;;;;;5058895;28;20017;-70
2022/12/03 01:43:14;;;;;;;37.10;15.95;;;3.50;99.90;;;;;;5057459;28;20029;-70
2022/12/03 01:45:40;;;;;;;45.72;17.95;;;3.60;99.90;;;;;;5059076;28;20037;-70
2022/12/03 01:48:05;;;;;;;38.58;16.10;;;3.60;99.90;;;;;;5058810;28;20135;-70
2022/12/03 01:50:32;;;;;;;42.80;17.23;;;3.60;99.90;;;;;;5059104;28;20032;-70
2022/12/03 01:53:01;;;;;;;42.25;16.63;;;3.60;99.90;;;;;;5057972;28;20102;-70
2022/12/03 01:55:28;;;;;;;43.17;15.45;;;3.60;99.90;;;;;;5058564;28;20029;-71
2022/12/03 01:57:56;;;;;;;38.50;16.88;;;3.50;99.90;;;;;;5062783;28;20734;-71
2022/12/03 02:00:25;;;;;;;42.28;17.13;;;3.50;99.90;;;;;;5062170;28;20017;-70
2022/12/03 02:02:56;;;;;;;38.53;16.15;;;3.40;99.90;;;;;;5061597;28;20025;-70
2022/12/03 02:05:25;;;;;;;41.97;16.65;;;3.40;99.90;;;;;;5061983;28;20075;-70
2022/12/03 02:07:51;;;;;;;37.40;16.08;;;3.40;99.90;;;;;;5062636;28;20017;-70
2022/12/03 02:10:22;;;;;;;44.30;17.48;;;3.40;99.90;;;;;;5061728;28;20080;-71
2022/12/03 02:12:55;;;;;;;41.58;16.85;;;3.40;99.90;;;;;;5061601;28;20028;-70
2022/12/03 02:15:21;;;;;;;39.30;17.13;;;3.30;99.90;;;;;;5061828;28;20032;-70
2022/12/03 02:17:46;;;;;;;48.90;18.83;;;3.30;99.90;;;;;;5062090;28;20036;-70
2022/12/03 02:20:13;;;;;;;42.47;17.05;;;3.30;99.90;;;;;;5062181;28;20021;-70
2022/12/03 02:23:12;;;;;;;41.28;16.52;;;3.40;99.90;;;;;;5062176;28;20563;-69
2022/12/03 02:25:38;;;;;;;40.92;16.65;;;3.30;99.90;;;;;;5062303;28;20029;-68
2022/12/03 02:28:06;;;;;;;43.92;17.08;;;3.30;99.90;;;;;;5062130;28;20049;-69
2022/12/03 02:30:32;;;;;;;40.88;16.88;;;3.20;99.90;;;;;;5060784;28;20989;-68
2022/12/03 02:32:58;;;;;;;38.95;16.02;;;3.20;99.90;;;;;;5061841;28;20021;-68
2022/12/03 02:35:28;;;;;;;41.88;17.40;;;3.20;99.90;;;;;;5061349;28;20128;-69
2022/12/03 02:37:59;;;;;;;47.15;17.52;;;3.10;99.90;;;;;;5061616;28;20051;-68
2022/12/03 02:40:29;;;;;;;37.40;16.73;;;3.10;99.90;;;;;;5061099;28;20021;-70
2022/12/03 02:42:57;;;;;;;44.70;17.58;;;3.10;99.90;;;;;;5061242;28;20059;-69
2022/12/03 02:45:26;;;;;;;42.17;16.10;;;3.10;99.90;;;;;;5061749;28;20029;-69
2022/12/03 02:48:02;;;;;;;43.08;15.95;;;3.10;99.90;;;;;;5061079;28;20025;-69
2022/12/03 02:50:32;;;;;;;43.03;17.02;;;3.10;99.90;;;;;;5060429;28;20102;-69
2022/12/03 02:53:01;;;;;;;41.63;16.73;;;3.10;99.90;;;;;;5061134;28;20031;-68
2022/12/03 02:55:29;;;;;;;47.22;17.45;;;3.10;99.90;;;;;;5061138;28;20031;-69
2022/12/03 02:57:55;;;;;;;43.80;17.02;;;3.00;99.90;;;;;;5061465;28;20041;-69
2022/12/03 03:00:21;;;;;;;43.33;18.13;;;3.00;99.90;;;;;;5061521;28;20039;-69
2022/12/03 03:02:49;;;;;;;40.35;16.50;;;3.00;99.90;;;;;;5061454;28;20053;-69
2022/12/03 03:05:19;;;;;;;43.40;17.42;;;3.00;99.90;;;;;;5061029;28;20060;-69
2022/12/03 03:07:45;;;;;;;45.00;18.45;;;3.00;99.90;;;;;;5060693;28;20044;-70
2022/12/03 03:10:15;;;;;;;44.10;17.25;;;3.00;99.90;;;;;;5060100;28;20062;-69
2022/12/03 03:12:41;;;;;;;42.40;16.75;;;3.00;99.90;;;;;;5060914;28;20064;-69
2022/12/03 03:15:08;;;;;;;39.30;16.75;;;2.90;99.90;;;;;;5060994;28;20052;-69
2022/12/03 03:17:34;;;;;;;44.40;16.83;;;2.90;99.90;;;;;;5061010;28;20024;-70
2022/12/03 03:20:01;;;;;;;46.22;17.38;;;2.90;99.90;;;;;;5060339;28;20037;-69
2022/12/03 03:22:35;;;;;;;42.40;18.10;;;2.90;99.90;;;;;;5060928;28;20060;-69
2022/12/03 03:25:01;;;;;;;49.92;18.10;;;2.90;99.90;;;;;;5060317;28;20088;-69
2022/12/03 03:27:27;;;;;;;54.58;17.90;;;2.80;99.90;;;;;;5061366;28;20041;-68
2022/12/03 03:29:53;;;;;;;42.45;17.88;;;2.80;99.90;;;;;;5060409;28;20045;-69
2022/12/03 03:32:19;;;;;;;51.13;18.52;;;2.80;99.90;;;;;;5061011;28;20025;-69
2022/12/03 03:34:45;;;;;;;49.35;17.60;;;2.70;99.90;;;;;;5059614;28;20029;-69
2022/12/03 03:37:11;;;;;;;49.50;18.77;;;2.70;99.90;;;;;;5060050;28;20025;-68
2022/12/03 03:39:37;;;;;;;52.35;18.83;;;2.70;99.90;;;;;;5060674;28;20041;-69
2022/12/03 03:42:03;;;;;;;52.05;19.85;;;2.70;99.90;;;;;;5061044;28;20041;-68
2022/12/03 03:44:28;;;;;;;49.03;18.65;;;2.70;99.90;;;;;;5059875;28;20029;-69
2022/12/03 03:46:56;;;;;;;44.50;17.70;;;2.60;99.90;;;;;;5060678;28;20047;-68
2022/12/03 03:49:22;;;;;;;48.05;18.80;;;2.60;99.90;;;;;;5060007;28;20044;-69
2022/12/03 03:51:47;;;;;;;50.83;19.58;;;2.60;99.90;;;;;;5059998;28;20051;-69
2022/12/03 03:54:13;;;;;;;52.83;18.75;;;2.60;99.90;;;;;;5060014;28;20021;-69
2022/12/03 03:56:39;;;;;;;48.35;18.77;;;2.60;99.90;;;;;;5059611;28;20043;-69
2022/12/03 03:59:05;;;;;;;48.97;18.48;;;2.60;99.90;;;;;;5060933;28;20099;-69
2022/12/03 04:01:31;;;;;;;50.15;18.33;;;2.60;99.90;;;;;;5041903;28;20028;-69
2022/12/03 04:03:58;;;;;;;52.15;18.45;;;2.60;99.90;;;;;;5042005;28;20029;-69
2022/12/03 04:06:25;;;;;;;49.28;19.27;;;2.50;99.90;;;;;;5059757;28;20016;-69
2022/12/03 04:08:51;;;;;;;45.65;18.10;;;2.50;99.90;;;;;;5059430;28;20056;-69
2022/12/03 04:14:00;;;;;;;49.92;18.63;;;2.50;99.90;;;;;;5061252;28;20211;-68
2022/12/03 04:16:26;;;;;;;49.75;19.58;;;2.50;99.90;;;;;;5060851;28;20033;-69
2022/12/03 04:18:52;;;;;;;53.08;19.02;;;2.50;99.90;;;;;;5059899;28;20391;-69
2022/12/03 04:24:06;;;;;;;49.47;19.70;;;2.50;99.90;;;;;;5061135;28;20121;-68
2022/12/03 04:29:16;;;;;;;50.47;18.88;;;2.50;99.90;;;;;;5060859;28;20126;-69
2022/12/03 04:37:13;;;;;;;53.72;19.92;;;2.40;99.90;;;;;;5060598;28;20085;-70
2022/12/03 04:39:39;;;;;;;56.22;20.50;;;2.40;99.90;;;;;;5060838;28;20044;-70
2022/12/03 04:42:05;;;;;;;51.53;20.40;;;2.40;99.90;;;;;;5061104;28;20021;-69
2022/12/03 04:44:32;;;;;;;53.58;20.42;;;2.40;99.90;;;;;;5060706;28;20021;-69
2022/12/03 04:46:58;;;;;;;55.15;20.55;;;2.40;99.90;;;;;;5060761;28;20128;-69
2022/12/03 04:49:24;;;;;;;54.75;21.35;;;2.40;99.90;;;;;;5060921;28;20036;-70
2022/12/03 04:51:49;;;;;;;49.58;20.75;;;2.40;99.90;;;;;;5060546;28;20025;-69
2022/12/03 04:54:15;;;;;;;57.03;20.63;;;2.40;99.90;;;;;;5060728;28;20040;-68
2022/12/03 04:56:41;;;;;;;59.50;21.55;;;2.40;99.90;;;;;;5042719;28;20056;-68
2022/12/03 04:59:06;;;;;;;59.72;21.15;;;2.40;99.90;;;;;;5061288;28;20021;-69
2022/12/03 05:01:32;;;;;;;54.58;20.23;;;2.40;99.90;;;;;;5061236;28;20025;-68
2022/12/03 05:03:58;;;;;;;55.53;21.13;;;2.40;99.90;;;;;;5060990;28;20362;-68
2022/12/03 05:06:23;;;;;;;51.40;19.75;;;2.40;99.90;;;;;;5060920;28;20033;-69
2022/12/03 05:08:49;;;;;;;57.67;21.48;;;2.30;99.90;;;;;;5061177;28;20029;-68
2022/12/03 05:11:15;;;;;;;56.45;20.73;;;2.30;99.90;;;;;;5061294;28;20155;-70
2022/12/03 05:13:40;;;;;;;56.65;20.95;;;2.30;99.90;;;;;;5060808;28;20522;-70
2022/12/03 05:16:06;;;;;;;53.00;21.33;;;2.20;99.90;;;;;;5061068;28;20031;-71
2022/12/03 05:18:32;;;;;;;55.70;21.75;;;2.20;99.90;;;;;;5061293;28;20562;-68
2022/12/03 05:20:57;;;;;;;55.10;20.25;;;2.20;99.90;;;;;;5060496;28;20021;-70
2022/12/03 05:23:23;;;;;;;59.10;21.05;;;2.20;99.90;;;;;;5060365;28;20128;-68
2022/12/03 05:25:48;;;;;;;60.95;21.88;;;2.10;99.90;;;;;;5060480;28;20051;-68
2022/12/03 05:28:14;;;;;;;57.30;21.00;;;2.10;99.90;;;;;;5060483;28;20033;-69
2022/12/03 05:30:40;;;;;;;60.40;22.08;;;2.10;99.90;;;;;;5060564;28;20063;-69
2022/12/03 05:33:05;;;;;;;55.58;21.73;;;2.10;99.90;;;;;;5064932;28;20033;-70
2022/12/03 05:35:31;;;;;;;62.83;22.60;;;2.00;99.90;;;;;;5064474;28;20037;-68
2022/12/03 05:37:56;;;;;;;62.25;24.30;;;1.90;99.90;;;;;;5064658;28;20817;-69
2022/12/03 05:40:22;;;;;;;63.65;23.13;;;1.90;99.90;;;;;;5064735;28;20025;-70
2022/12/03 05:42:53;;;;;;;64.38;22.70;;;1.90;99.90;;;;;;5064093;28;20025;-70
2022/12/03 05:45:54;;;;;;;59.50;22.83;;;1.90;99.90;;;;;;5064069;28;20017;-69
2022/12/03 05:48:20;;;;;;;58.45;22.45;;;1.90;99.90;;;;;;4963576;29;20047;-68
2022/12/03 05:50:46;;;;;;;57.78;21.25;;;1.90;99.90;;;;;;5043055;28;20106;-69
2022/12/03 05:53:12;;;;;;;61.15;22.40;;;1.90;99.90;;;;;;5064615;28;20095;-69
2022/12/03 05:55:38;;;;;;;53.83;21.85;;;1.90;99.90;;;;;;5064611;28;20104;-69
2022/12/03 05:58:04;;;;;;;52.42;21.02;;;1.90;99.90;;;;;;5064295;28;20025;-68
2022/12/03 06:00:36;;;;;;;57.03;22.52;;;1.90;99.90;;;;;;5064049;28;20048;-69
2022/12/03 06:03:04;;;;;;;61.15;22.88;;;1.90;99.90;;;;;;5063941;28;20056;-69
2022/12/03 06:05:29;;;;;;;61.38;22.25;;;1.90;99.90;;;;;;5064228;28;20021;-68
2022/12/03 06:07:55;;;;;;;62.83;23.35;;;1.90;99.90;;;;;;5064312;28;20031;-69
2022/12/03 06:10:23;;;;;;;62.28;22.65;;;1.80;99.90;;;;;;5062307;28;20040;-69
2022/12/03 06:12:49;;;;;;;64.55;22.65;;;1.80;99.90;;;;;;5063462;28;20025;-68
2022/12/03 06:15:15;;;;;;;61.83;24.15;;;1.80;99.90;;;;;;5063402;28;20171;-69
2022/12/03 06:17:41;;;;;;;62.15;23.38;;;1.70;99.90;;;;;;5063952;28;20044;-69
2022/12/03 06:20:07;;;;;;;61.78;23.65;;;1.70;99.90;;;;;;5063915;28;20037;-69
2022/12/03 06:22:33;;;;;;;60.65;22.80;;;1.70;99.90;;;;;;5063618;28;20028;-68
2022/12/03 06:24:59;;;;;;;62.92;23.73;;;1.70;99.90;;;;;;5063548;28;20017;-68
2022/12/03 06:27:24;;;;;;;66.50;23.48;;;1.60;99.90;;;;;;5063704;28;21121;-68
2022/12/03 06:29:50;;;;;;;68.18;23.60;;;1.60;99.90;;;;;;5062943;28;20068;-71
2022/12/03 06:32:15;;;;;;;58.13;24.38;;;1.60;99.90;;;;;;5063073;28;20032;-70
2022/12/03 06:34:41;;;;;;;61.58;23.73;;;1.60;99.90;;;;;;5063257;28;20021;-69
2022/12/03 06:37:07;;;;;;;59.38;22.90;;;1.60;99.90;;;;;;5063839;28;20077;-68
2022/12/03 06:39:32;;;;;;;67.18;24.58;;;1.60;99.90;;;;;;5063294;28;20032;-69
2022/12/03 06:41:58;;;;;;;66.47;24.58;;;1.60;99.90;;;;;;5062192;28;20419;-69
2022/12/03 06:44:23;;;;;;;67.70;25.15;;;1.60;99.90;;;;;;5063283;28;20047;-69
2022/12/03 06:46:49;;;;;;;68.00;25.25;;;1.60;99.90;;;;;;5062481;28;20036;-70
2022/12/03 06:49:15;;;;;;;65.22;23.50;;;1.60;99.90;;;;;;5061111;28;20048;-69
2022/12/03 06:51:40;;;;;;;73.82;24.67;;;1.60;99.90;;;;;;5063318;28;20025;-69
2022/12/03 06:54:06;;;;;;;63.58;24.52;;;1.60;99.90;;;;;;5062898;28;20048;-69
2022/12/03 06:56:32;;;;;;;59.28;24.00;;;1.50;99.90;;;;;;5061418;28;20043;-69
2022/12/03 06:58:57;;;;;;;65.93;26.20;;;1.50;99.90;;;;;;5063078;28;20037;-69
2022/12/03 07:01:23;;;;;;;70.28;26.23;;;1.50;99.90;;;;;;5062354;28;20031;-70
2022/12/03 07:03:49;;;;;;;66.43;23.83;;;1.50;99.90;;;;;;5062844;28;20115;-69
2022/12/03 07:06:15;;;;;;;69.57;25.58;;;1.50;99.90;;;;;;5062975;28;20103;-69
2022/12/03 07:08:40;;;;;;;66.10;26.50;;;1.50;99.90;;;;;;5062190;28;20045;-69
2022/12/03 07:11:29;;;;;;;64.88;24.33;;;1.50;99.90;;;;;;5062237;28;20029;-69
2022/12/03 07:13:56;;;;;;;73.05;24.92;;;1.60;99.90;;;;;;5060720;28;20052;-69
2022/12/03 07:16:21;;;;;;;64.63;25.17;;;1.60;99.90;;;;;;5060565;28;20393;-69
2022/12/03 07:18:47;;;;;;;67.75;24.50;;;1.50;99.90;;;;;;5061310;28;20032;-69
2022/12/03 07:21:13;;;;;;;59.38;24.13;;;1.50;99.90;;;;;;5061645;28;20025;-69
2022/12/03 07:23:39;;;;;;;68.35;25.98;;;1.50;99.90;;;;;;5061681;28;20036;-70
2022/12/03 07:26:05;;;;;;;68.28;25.20;;;1.50;99.90;;;;;;5062207;28;20024;-70
2022/12/03 07:28:31;;;;;;;66.05;24.55;;;1.50;99.90;;;;;;5061882;28;20123;-70
2022/12/03 07:30:57;;;;;;;67.18;26.23;;;1.50;99.90;;;;;;5060264;28;20057;-69
2022/12/03 07:33:22;;;;;;;73.78;25.88;;;1.50;99.90;;;;;;5061861;28;20032;-69
2022/12/03 07:35:48;;;;;;;65.53;25.33;;;1.50;99.90;;;;;;5061727;28;20025;-68
2022/12/03 07:38:13;;;;;;;69.68;26.42;;;1.50;99.90;;;;;;5061705;28;20021;-69
2022/12/03 07:40:39;;;;;;;70.15;25.77;;;1.50;99.90;;;;;;5059843;28;20096;-70
2022/12/03 07:43:05;;;;;;;64.22;25.52;;;1.50;99.90;;;;;;5061982;28;20062;-69
2022/12/03 07:45:31;;;;;;;71.07;27.00;;;1.40;99.90;;;;;;5062072;28;20033;-70
2022/12/03 07:47:56;;;;;;;66.75;24.77;;;1.40;99.90;;;;;;5062009;28;20033;-69
2022/12/03 07:50:22;;;;;;;63.78;24.25;;;1.50;99.90;;;;;;5061607;28;20032;-68
2022/12/03 07:52:48;;;;;;;69.25;26.63;;;1.40;99.90;;;;;;5061684;28;20087;-68
2022/12/03 07:55:13;;;;;;;64.05;25.48;;;1.50;99.90;;;;;;5059995;28;20032;-69
2022/12/03 07:57:39;;;;;;;70.53;27.05;;;1.50;99.90;;;;;;5061201;28;20117;-69
2022/12/03 08:00:06;;;;;;;62.33;25.77;;;1.50;99.90;;;;;;5062334;28;20021;-70
2022/12/03 08:02:32;;;;;;;69.57;27.13;;;1.50;99.90;;;;;;5060515;28;20052;-69
2022/12/03 08:04:57;;;;;;;73.15;26.08;;;1.60;99.90;;;;;;5059897;28;20025;-69
2022/12/03 08:07:23;;;;;;;72.88;26.20;;;1.60;99.90;;;;;;5061456;28;20067;-69
2022/12/03 08:09:49;;;;;;;66.65;25.83;;;1.60;99.90;;;;;;5061512;28;20093;-68
2022/12/03 08:12:38;;;;;;;66.88;25.75;;;1.60;99.90;;;;;;5060961;28;20055;-70
2022/12/03 08:15:18;;;;;;;71.93;25.92;;;1.50;99.90;;;;;;5060686;28;20073;-69
2022/12/03 08:17:50;;;;;;;64.93;25.70;;;1.50;99.90;;;;;;5060226;28;20358;-69
2022/12/03 08:20:20;;;;;;;64.43;25.50;;;1.60;99.90;;;;;;5059453;28;20029;-69
2022/12/03 08:22:49;;;;;;;66.38;25.98;;;1.60;99.90;;;;;;5058644;28;20492;-70
2022/12/03 08:25:22;;;;;;;63.63;24.63;;;1.60;99.90;;;;;;5058360;28;20029;-69
2022/12/03 08:27:48;;;;;;;72.93;24.45;;;1.60;99.90;;;;;;5060703;28;20029;-69
2022/12/03 08:30:15;;;;;;;72.78;25.25;;;1.60;99.90;;;;;;5059606;28;20045;-69
2022/12/03 08:32:41;;;;;;;65.00;24.13;;;1.60;99.90;;;;;;5060394;28;20057;-69
2022/12/03 08:35:17;;;;;;;63.40;24.00;;;1.60;99.90;;;;;;5061383;28;20029;-70
2022/12/03 08:37:42;;;;;;;62.13;25.42;;;1.60;99.90;;;;;;5060240;28;20021;-69
2022/12/03 08:40:45;;;;;;;70.00;24.77;;;1.60;99.90;;;;;;5059945;28;20039;-70
2022/12/03 08:43:23;;;;;;;64.63;24.83;;;1.70;99.90;;;;;;4959310;28;20172;-71
2022/12/03 08:45:56;;;;;;;63.42;24.42;;;1.70;99.90;;;;;;5047821;28;20048;-69
2022/12/03 08:48:31;;;;;;;63.17;24.85;;;1.80;99.90;;;;;;5060097;28;20064;-69
2022/12/03 08:51:00;;;;;;;70.10;26.13;;;1.80;99.90;;;;;;5059906;28;20051;-69
2022/12/03 08:53:40;;;;;;;75.80;24.63;;;1.80;99.90;;;;;;5060318;28;20029;-69
2022/12/03 08:56:19;;;;;;;68.45;24.92;;;1.90;99.90;;;;;;5058280;28;20043;-70
2022/12/03 08:58:47;;;;;;;60.72;23.42;;;1.90;99.90;;;;;;5058875;28;20055;-68
2022/12/03 09:01:19;;;;;;;63.47;24.67;;;1.90;99.90;;;;;;5059334;28;20047;-69
2022/12/03 09:03:53;;;;;;;59.92;23.92;;;1.90;99.90;;;;;;5060692;28;20057;-70
2022/12/03 09:06:19;;;;;;;64.80;23.88;;;2.00;99.90;;;;;;5060085;28;20025;-68
2022/12/03 09:08:45;;;;;;;63.05;25.10;;;2.00;99.90;;;;;;5059876;28;20037;-69
2022/12/03 09:11:11;;;;;;;65.22;24.10;;;2.00;99.90;;;;;;5059708;28;20435;-69
2022/12/03 09:13:37;;;;;;;65.93;24.23;;;2.00;99.90;;;;;;5059494;28;20025;-70
2022/12/03 09:16:03;;;;;;;63.30;22.70;;;2.00;99.90;;;;;;5058274;28;20199;-69
2022/12/03 09:18:29;;;;;;;62.15;23.65;;;2.10;99.90;;;;;;5059545;28;20040;-69
2022/12/03 09:20:55;;;;;;;61.08;24.17;;;2.10;99.90;;;;;;5059100;28;20025;-70
2022/12/03 09:23:21;;;;;;;59.97;24.00;;;2.10;99.90;;;;;;5060283;28;20032;-70
2022/12/03 09:25:47;;;;;;;54.42;23.30;;;2.20;99.90;;;;;;5059950;28;20043;-70
2022/12/03 09:28:13;;;;;;;57.47;23.80;;;2.20;99.90;;;;;;5059426;28;20037;-70
2022/12/03 09:30:38;;;;;;;60.78;22.75;;;2.30;99.90;;;;;;5059822;28;20044;-70
2022/12/03 09:33:04;;;;;;;61.25;24.98;;;2.40;99.90;;;;;;5061126;28;20033;-69
2022/12/03 09:35:30;;;;;;;65.28;23.77;;;2.40;99.90;;;;;;5060263;28;20041;-70
2022/12/03 09:37:55;;;;;;;61.08;23.05;;;2.50;99.90;;;;;;5058642;28;20052;-70
2022/12/03 09:40:21;;;;;;;55.60;23.10;;;2.50;99.90;;;;;;5059557;28;20622;-69
2022/12/03 09:42:48;;;;;;;62.47;22.98;;;2.50;99.90;;;;;;5056848;28;20033;-71
2022/12/03 09:45:15;;;;;;;55.70;23.83;;;2.50;99.90;;;;;;5057407;28;20450;-70
2022/12/03 09:47:45;;;;;;;59.45;22.88;;;2.50;99.90;;;;;;5058627;28;20489;-70
2022/12/03 09:50:14;;;;;;;66.53;24.50;;;2.50;99.90;;;;;;5058935;28;20049;-71
2022/12/03 09:52:40;;;;;;;62.08;24.65;;;2.40;99.90;;;;;;5058149;28;20017;-71
2022/12/03 09:55:19;;;;;;;58.58;22.92;;;2.40;99.90;;;;;;5055569;28;20036;-70
2022/12/03 09:57:45;;;;;;;53.55;21.77;;;2.30;99.90;;;;;;5058920;28;20025;-69
2022/12/03 10:00:23;;;;;;;57.55;22.75;;;2.20;99.90;;;;;;5059191;28;20039;-70
2022/12/03 10:02:50;;;;;;;60.03;23.95;;;2.20;99.90;;;;;;5041438;28;20072;-70
2022/12/03 10:05:18;;;;;;;62.05;26.02;;;2.10;99.90;;;;;;5059650;28;20132;-70
2022/12/03 10:07:45;;;;;;;63.90;25.75;;;2.20;99.90;;;;;;5058659;28;20089;-70
2022/12/03 10:10:20;;;;;;;58.90;22.95;;;2.10;99.90;;;;;;5057469;28;20057;-70
2022/12/03 10:12:46;;;;;;;59.75;23.80;;;2.10;99.90;;;;;;5056055;28;20477;-69
2022/12/03 10:15:14;;;;;;;61.58;22.40;;;2.10;99.90;;;;;;5058508;28;20105;-70
2022/12/03 10:17:41;;;;;;;56.90;22.77;;;2.10;99.90;;;;;;5060202;28;20117;-70
2022/12/03 10:20:11;;;;;;;53.45;21.95;;;2.10;99.90;;;;;;5062485;28;20051;-69
2022/12/03 10:22:37;;;;;;;56.58;22.23;;;2.10;99.90;;;;;;5060673;28;20029;-71
2022/12/03 10:25:43;;;;;;;56.42;21.85;;;2.20;99.90;;;;;;5062725;28;20151;-70
2022/12/03 10:28:09;;;;;;;58.00;23.02;;;2.10;99.90;;;;;;5056570;28;20040;-69
2022/12/03 10:30:38;;;;;;;60.72;22.45;;;2.20;99.90;;;;;;5059635;28;20083;-69
2022/12/03 10:33:14;;;;;;;55.28;22.80;;;2.30;99.90;;;;;;5061043;28;20088;-69
2022/12/03 10:35:40;;;;;;;58.28;23.00;;;2.30;99.90;;;;;;5058766;28;20112;-69
2022/12/03 10:38:18;;;;;;;62.25;22.35;;;2.30;99.90;;;;;;5062370;28;20106;-69
2022/12/03 10:40:44;;;;;;;61.33;22.27;;;2.40;99.90;;;;;;5062734;28;20086;-70
2022/12/03 10:43:23;;;;;;;55.92;22.50;;;2.40;99.90;;;;;;5060722;28;20020;-69
2022/12/03 10:46:02;;;;;;;58.55;22.20;;;2.40;99.90;;;;;;5061063;28;20059;-70
2022/12/03 10:48:27;;;;;;;55.13;22.58;;;2.40;99.90;;;;;;5062397;28;20037;-69
2022/12/03 10:50:56;;;;;;;71.20;23.95;;;2.30;99.90;;;;;;5058674;28;20437;-69
2022/12/03 10:53:25;;;;;;;57.45;22.10;;;2.30;99.90;;;;;;5061755;28;20063;-69
2022/12/03 10:55:57;;;;;;;58.40;21.70;;;2.20;99.90;;;;;;5062238;28;20025;-70
2022/12/03 10:58:25;;;;;;;59.22;22.55;;;2.30;99.90;;;;;;5062743;28;20025;-69
2022/12/03 11:00:53;;;;;;;59.65;22.77;;;2.30;99.90;;;;;;5060746;28;20029;-70
2022/12/03 11:03:22;;;;;;;57.10;22.85;;;2.30;99.90;;;;;;5060243;28;20031;-70
2022/12/03 11:05:50;;;;;;;62.95;23.83;;;2.30;99.90;;;;;;5060919;28;20029;-69
2022/12/03 11:08:22;;;;;;;55.58;22.88;;;2.30;99.90;;;;;;5062581;28;20025;-69
2022/12/03 11:11:00;;;;;;;61.08;21.85;;;2.30;99.90;;;;;;5061938;28;20033;-70
2022/12/03 11:13:44;;;;;;;58.33;23.10;;;2.30;99.90;;;;;;5061272;28;20036;-69
2022/12/03 11:16:10;;;;;;;57.20;23.73;;;2.30;99.90;;;;;;5061310;28;20039;-70
2022/12/03 11:18:55;;;;;;;54.08;21.55;;;2.40;99.90;;;;;;5062178;28;20033;-71
2022/12/03 11:21:22;;;;;;;62.30;22.08;;;2.40;99.90;;;;;;5061874;28;20032;-70
2022/12/03 11:23:50;;;;;;;60.30;24.17;;;2.40;99.90;;;;;;5061761;28;20032;-69
2022/12/03 11:26:16;;;;;;;58.65;22.27;;;2.40;99.90;;;;;;5061500;28;20028;-70
2022/12/03 11:28:44;;;;;;;58.42;23.67;;;2.40;99.90;;;;;;5061339;28;20049;-71
2022/12/03 11:31:46;;;;;;;63.92;23.67;;;2.40;99.90;;;;;;5062167;28;20060;-70
2022/12/03 11:34:17;;;;;;;58.05;22.30;;;2.40;99.90;;;;;;5061559;28;20021;-70
2022/12/03 11:37:08;;;;;;;53.10;21.83;;;2.40;99.90;;;;;;5059121;28;20029;-70
2022/12/03 11:39:54;;;;;;;58.72;22.00;;;2.40;99.90;;;;;;5056331;28;20037;-69
2022/12/03 11:42:24;;;;;;;53.90;22.30;;;2.40;99.90;;;;;;5057185;28;20033;-69
2022/12/03 11:45:15;;;;;;;56.33;21.92;;;2.40;99.90;;;;;;5061440;28;20013;-69
2022/12/03 11:48:02;;;;;;;61.08;22.52;;;2.50;99.90;;;;;;5048833;28;20060;-68
2022/12/03 11:50:33;;;;;;;59.78;22.70;;;2.50;99.90;;;;;;5059924;28;20044;-70
2022/12/03 11:53:06;;;;;;;52.55;21.67;;;2.50;99.90;;;;;;5062207;28;20029;-68
2022/12/03 11:55:36;;;;;;;64.15;23.25;;;2.50;99.90;;;;;;5061246;28;20024;-69
2022/12/03 11:58:15;;;;;;;51.15;22.17;;;2.50;99.90;;;;;;5062184;28;20039;-69
2022/12/03 12:00:50;;;;;;;56.55;22.77;;;2.50;99.90;;;;;;5061360;28;20065;-70
2022/12/03 12:03:44;;;;;;;60.83;22.48;;;2.50;99.90;;;;;;5061757;28;20021;-69
2022/12/03 12:06:12;;;;;;;69.05;23.45;;;2.50;99.90;;;;;;5060610;28;20052;-71
2022/12/03 12:09:02;;;;;;;56.67;22.45;;;2.50;99.90;;;;;;5061524;28;20044;-70
2022/12/03 12:11:36;;;;;;;57.60;21.70;;;2.50;99.90;;;;;;5061422;28;20035;-69
2022/12/03 12:14:03;;;;;;;65.13;22.88;;;2.50;99.90;;;;;;5062089;28;20024;-69
2022/12/03 12:17:24;;;;;;;57.55;22.17;;;2.50;99.90;;;;;;5060154;28;20028;-69
2022/12/03 12:19:49;;;;;;;54.13;21.70;;;2.50;99.90;;;;;;4960389;28;20039;-68
2022/12/03 12:22:24;;;;;;;54.40;22.73;;;2.50;99.90;;;;;;5053407;28;20048;-68
2022/12/03 12:24:55;;;;;;;54.60;21.27;;;2.50;99.90;;;;;;5061197;28;20048;-68
2022/12/03 12:27:31;;;;;;;57.92;21.58;;;2.50;99.90;;;;;;5061406;28;20040;-68
2022/12/03 12:30:03;;;;;;;60.10;23.23;;;2.60;99.90;;;;;;5060699;28;20051;-69
2022/12/03 12:32:32;;;;;;;61.28;23.52;;;2.60;99.90;;;;;;5060051;28;20036;-69
2022/12/03 12:35:16;;;;;;;59.30;22.08;;;2.60;99.90;;;;;;5061079;28;20504;-68
2022/12/03 12:38:11;;;;;;;53.22;21.98;;;2.60;99.90;;;;;;5060743;28;20032;-69
2022/12/03 12:40:38;;;;;;;59.97;24.42;;;2.60;99.90;;;;;;5061033;28;20559;-69
2022/12/03 12:43:14;;;;;;;58.50;21.48;;;2.50;99.90;;;;;;5060683;28;20108;-69
2022/12/03 12:45:42;;;;;;;59.35;23.08;;;2.50;99.90;;;;;;5061475;28;20025;-69
2022/12/03 12:48:22;;;;;;;59.42;22.65;;;2.50;99.90;;;;;;5061344;28;20465;-68
2022/12/03 12:51:10;;;;;;;59.10;22.13;;;2.50;99.90;;;;;;5060004;28;20033;-69
2022/12/03 12:53:38;;;;;;;62.75;22.25;;;2.60;99.90;;;;;;5060769;28;20509;-69
2022/12/03 12:56:21;;;;;;;68.32;22.90;;;2.60;99.90;;;;;;5060634;28;20029;-68
2022/12/03 12:58:47;;;;;;;56.25;22.15;;;2.60;99.90;;;;;;5059591;28;20366;-69
2022/12/03 13:01:23;;;;;;;54.10;22.00;;;2.60;99.90;;;;;;5060677;28;20031;-68